createdAt,value
2022-12-13T00:01:46.646Z,-4.14
2022-12-13T00:04:14.871Z,-4.13
2022-12-13T00:06:44.611Z,-4.22
2022-12-13T00:09:15.218Z,-4.26
2022-12-13T00:11:43.388Z,-4.18
2022-12-13T00:14:13.858Z,-4.17
2022-12-13T00:16:42.322Z,-4.17
2022-12-13T00:19:10.416Z,-4.11
2022-12-13T00:21:39.752Z,-4.11
2022-12-13T00:24:09.375Z,-4.16
2022-12-13T00:26:38.042Z,-4.14
2022-12-13T00:29:08.452Z,-4.11
2022-12-13T00:31:59.437Z,-4.08
2022-12-13T00:34:25.202Z,-3.97
2022-12-13T00:36:54.798Z,-3.96
2022-12-13T00:39:24.165Z,-4.20
2022-12-13T00:41:52.080Z,-4.27
2022-12-13T00:44:20.333Z,-4.21
2022-12-13T00:46:48.396Z,-4.24
2022-12-13T00:49:16.541Z,-4.22
2022-12-13T00:51:44.849Z,-4.20
2022-12-13T00:54:12.684Z,-4.33
2022-12-13T00:56:41.890Z,-4.38
2022-12-13T00:59:14.338Z,-4.35
2022-12-13T01:01:42.283Z,-4.43
2022-12-13T01:04:10.199Z,-4.52
2022-12-13T01:06:43.123Z,-4.41
2022-12-13T01:09:17.089Z,-4.58
2022-12-13T01:11:47.472Z,-4.55
2022-12-13T01:14:16.337Z,-4.47
2022-12-13T01:16:44.360Z,-4.68
2022-12-13T01:19:12.338Z,-4.57
2022-12-13T01:21:40.320Z,-4.58
2022-12-13T01:24:08.669Z,-4.54
2022-12-13T01:26:37.768Z,-4.65
2022-12-13T01:29:07.183Z,-4.71
2022-12-13T01:31:37.582Z,-4.53
2022-12-13T01:34:10.544Z,-4.59
2022-12-13T01:36:40.206Z,-4.60
2022-12-13T01:39:14.620Z,-4.55
2022-12-13T01:41:44.819Z,-4.53
2022-12-13T01:44:46.088Z,-4.63
2022-12-13T01:47:19.204Z,-4.76
2022-12-13T01:49:47.423Z,-4.69
2022-12-13T01:52:16.318Z,-4.85
2022-12-13T01:54:47.972Z,-4.91
2022-12-13T01:57:18.555Z,-4.86
2022-12-13T01:59:48.241Z,-4.87
2022-12-13T02:02:17.519Z,-4.86
2022-12-13T02:04:51.687Z,-4.78
2022-12-13T02:07:23.737Z,-4.86
2022-12-13T02:09:56.497Z,-4.94
2022-12-13T02:12:29.609Z,-4.95
2022-12-13T02:15:00.766Z,-4.79
2022-12-13T02:17:45.726Z,-4.88
2022-12-13T02:20:52.371Z,-4.79
2022-12-13T02:23:38.841Z,-4.75
2022-12-13T02:26:32.332Z,-4.84
2022-12-13T02:29:30.563Z,-4.88
2022-12-13T02:32:05.285Z,-5.04
2022-12-13T02:34:39.702Z,-5.00
2022-12-13T02:37:18.034Z,-5.01
2022-12-13T02:39:53.116Z,-4.94
2022-12-13T02:42:26.548Z,-5.01
2022-12-13T02:44:58.781Z,-4.90
2022-12-13T02:47:30.224Z,-4.87
2022-12-13T02:50:02.898Z,-5.04
2022-12-13T02:52:33.650Z,-4.96
2022-12-13T02:55:01.528Z,-4.92
2022-12-13T02:57:32.697Z,-4.94
2022-12-13T03:00:04.277Z,-5.04
2022-12-13T03:02:44.640Z,-4.95
2022-12-13T03:05:41.135Z,-4.97
2022-12-13T03:08:22.214Z,-4.96
2022-12-13T03:11:00.163Z,-5.11
2022-12-13T03:13:37.542Z,-5.14
2022-12-13T03:16:24.215Z,-5.18
2022-12-13T03:18:56.236Z,-5.24
2022-12-13T03:21:24.431Z,-5.43
2022-12-13T03:23:53.182Z,-5.31
2022-12-13T03:26:24.124Z,-5.39
2022-12-13T03:28:52.662Z,-5.20
2022-12-13T03:31:20.935Z,-5.29
2022-12-13T03:33:48.902Z,-5.44
2022-12-13T03:36:19.805Z,-5.41
2022-12-13T03:38:48.768Z,-5.48
2022-12-13T03:41:19.860Z,-5.47
2022-12-13T03:43:47.885Z,-5.49
2022-12-13T03:46:15.877Z,-5.47
2022-12-13T03:48:43.815Z,-5.54
2022-12-13T03:51:11.708Z,-5.44
2022-12-13T03:53:40.951Z,-5.44
2022-12-13T03:56:09.374Z,-5.46
2022-12-13T03:58:38.453Z,-5.40
2022-12-13T04:01:11.542Z,-5.42
2022-12-13T04:03:40.560Z,-5.34
2022-12-13T04:06:09.630Z,-5.39
2022-12-13T04:08:38.825Z,-5.49
2022-12-13T04:11:22.833Z,-5.52
2022-12-13T04:13:50.679Z,-5.60
2022-12-13T04:16:18.877Z,-5.54
2022-12-13T04:18:46.814Z,-5.55
2022-12-13T04:21:14.683Z,-5.63
2022-12-13T04:23:42.415Z,-5.57
2022-12-13T04:26:11.617Z,-5.41
2022-12-13T04:28:39.584Z,-5.53
2022-12-13T04:31:08.011Z,-5.50
2022-12-13T04:33:35.913Z,-5.43
2022-12-13T04:36:04.085Z,-5.42
2022-12-13T04:38:31.952Z,-5.46
2022-12-13T04:41:07.048Z,-5.56
2022-12-13T04:43:36.332Z,-5.45
2022-12-13T04:46:04.588Z,-5.53
2022-12-13T04:48:33.470Z,-5.44
2022-12-13T04:51:02.762Z,-5.76
2022-12-13T04:53:31.235Z,-5.61
2022-12-13T04:55:59.194Z,-5.59
2022-12-13T04:58:27.799Z,-5.72
2022-12-13T05:00:57.437Z,-5.61
2022-12-13T05:03:25.768Z,-5.41
2022-12-13T05:05:53.702Z,-5.48
2022-12-13T05:08:21.624Z,-5.52
2022-12-13T05:10:49.595Z,-5.39
2022-12-13T05:13:17.736Z,-5.57
2022-12-13T05:15:49.422Z,-5.55
2022-12-13T05:18:21.347Z,-5.67
2022-12-13T05:20:50.922Z,-5.71
2022-12-13T05:23:22.346Z,-5.60
2022-12-13T05:25:51.274Z,-5.72
2022-12-13T05:28:27.893Z,-5.64
2022-12-13T05:30:58.578Z,-5.74
2022-12-13T05:33:28.327Z,-5.69
2022-12-13T05:35:59.937Z,-5.49
2022-12-13T05:38:29.781Z,-5.41
2022-12-13T05:40:57.554Z,-5.51
2022-12-13T05:43:42.367Z,-5.59
2022-12-13T05:46:12.746Z,-5.53
2022-12-13T05:48:42.342Z,-5.57
2022-12-13T05:51:11.853Z,-5.52
2022-12-13T05:53:41.470Z,-5.66
2022-12-13T05:56:10.894Z,-5.55
2022-12-13T05:58:40.166Z,-5.45
2022-12-13T06:01:10.107Z,-5.49
2022-12-13T06:03:38.263Z,-5.36
2022-12-13T06:06:09.520Z,-5.36
2022-12-13T06:08:38.177Z,-5.36
2022-12-13T06:11:10.860Z,-5.41
2022-12-13T06:13:42.821Z,-5.34
2022-12-13T06:16:22.445Z,-5.35
2022-12-13T06:19:02.739Z,-5.37
2022-12-13T06:21:43.931Z,-5.42
2022-12-13T06:24:15.397Z,-5.38
2022-12-13T06:26:45.414Z,-5.45
2022-12-13T06:29:24.266Z,-5.43
2022-12-13T06:31:55.071Z,-5.44
2022-12-13T06:34:32.820Z,-5.45
2022-12-13T06:37:02.706Z,-5.53
2022-12-13T06:39:33.269Z,-5.40
2022-12-13T06:42:02.723Z,-5.55
2022-12-13T06:44:30.714Z,-5.44
2022-12-13T06:47:11.839Z,-5.56
2022-12-13T06:49:43.682Z,-5.52
2022-12-13T06:52:16.171Z,-5.43
2022-12-13T06:54:44.886Z,-5.53
2022-12-13T06:57:13.837Z,-5.37
2022-12-13T06:59:42.687Z,-5.42
2022-12-13T07:02:15.481Z,-5.40
2022-12-13T07:04:55.551Z,-5.44
2022-12-13T07:07:26.253Z,-5.55
2022-12-13T07:09:54.718Z,-5.54
2022-12-13T07:12:23.092Z,-5.53
2022-12-13T07:14:50.980Z,-5.47
2022-12-13T07:17:31.801Z,-5.50
2022-12-13T07:20:07.770Z,-5.42
2022-12-13T07:22:44.972Z,-5.37
2022-12-13T07:25:28.539Z,-5.31
2022-12-13T07:28:02.932Z,-5.44
2022-12-13T07:30:33.663Z,-5.32
2022-12-13T07:33:02.786Z,-5.26
2022-12-13T07:35:31.024Z,-5.36
2022-12-13T07:38:07.259Z,-5.42
2022-12-13T07:40:35.728Z,-5.33
2022-12-13T07:43:03.828Z,-5.40
2022-12-13T07:45:31.742Z,-5.38
2022-12-13T07:48:00.364Z,-5.43
2022-12-13T07:50:28.381Z,-5.34
2022-12-13T07:53:08.261Z,-5.32
2022-12-13T07:55:37.433Z,-5.29
2022-12-13T07:58:06.633Z,-5.25
2022-12-13T08:00:34.540Z,-5.09
2022-12-13T08:03:02.662Z,-5.05
2022-12-13T08:05:38.223Z,-5.04
2022-12-13T08:08:11.832Z,-5.11
2022-12-13T08:10:40.227Z,-5.04
2022-12-13T08:13:08.320Z,-4.89
2022-12-13T08:15:36.209Z,-4.89
2022-12-13T08:18:06.901Z,-4.88
2022-12-13T08:20:34.917Z,-4.81
2022-12-13T08:23:02.891Z,-4.79
2022-12-13T08:25:32.703Z,-4.75
2022-12-13T08:28:01.494Z,-4.69
2022-12-13T08:30:31.537Z,-4.61
2022-12-13T08:32:59.403Z,-4.53
2022-12-13T08:35:34.839Z,-4.48
2022-12-13T08:38:03.683Z,-4.59
2022-12-13T08:40:33.973Z,-4.62
2022-12-13T08:43:01.931Z,-4.49
2022-12-13T08:45:31.601Z,-4.21
2022-12-13T08:48:00.884Z,-4.04
2022-12-13T08:50:29.438Z,-3.93
2022-12-13T08:52:57.721Z,-4.01
2022-12-13T08:55:31.239Z,-4.15
2022-12-13T08:58:08.386Z,-4.12
2022-12-13T09:00:40.105Z,-4.13
2022-12-13T09:03:10.193Z,-4.09
2022-12-13T09:05:39.086Z,-3.94
2022-12-13T09:08:23.096Z,-3.78
2022-12-13T09:11:11.358Z,-3.80
2022-12-13T09:13:52.400Z,-3.69
2022-12-13T09:16:35.761Z,-3.79
2022-12-13T09:19:06.600Z,-3.75
2022-12-13T09:21:53.647Z,-3.58
2022-12-13T09:24:36.189Z,-3.44
2022-12-13T09:27:09.239Z,-3.36
2022-12-13T09:29:39.646Z,-3.46
2022-12-13T09:32:07.794Z,-3.49
2022-12-13T09:34:35.934Z,-3.47
2022-12-13T09:37:04.014Z,-3.42
2022-12-13T09:39:31.899Z,-3.24
2022-12-13T09:42:01.755Z,-3.36
2022-12-13T09:44:49.756Z,-3.31
2022-12-13T09:47:47.136Z,-3.19
2022-12-13T09:50:25.201Z,-3.10
2022-12-13T09:52:59.993Z,-3.10
2022-12-13T09:55:32.302Z,-2.84
2022-12-13T09:58:06.692Z,-2.64
2022-12-13T10:00:37.527Z,-2.31
2022-12-13T10:03:05.531Z,-2.31
2022-12-13T10:05:39.423Z,-2.42
2022-12-13T10:08:12.811Z,-2.62
2022-12-13T10:10:40.993Z,-2.46
2022-12-13T10:13:17.661Z,-2.21
2022-12-13T10:15:51.473Z,-2.40
2022-12-13T10:18:27.883Z,-2.13
2022-12-13T10:20:56.807Z,-2.17
2022-12-13T10:23:47.051Z,-2.15
2022-12-13T10:26:24.300Z,-2.29
2022-12-13T10:29:03.039Z,-2.03
2022-12-13T10:31:41.541Z,-2.16
2022-12-13T10:34:21.269Z,-2.19
2022-12-13T10:36:49.381Z,-2.07
2022-12-13T10:39:20.207Z,-2.01
2022-12-13T10:41:48.582Z,-1.76
2022-12-13T10:44:22.563Z,-1.81
2022-12-13T10:47:00.873Z,-1.72
2022-12-13T10:49:35.935Z,-1.65
2022-12-13T10:52:04.041Z,-1.49
2022-12-13T10:54:38.462Z,-1.38
2022-12-13T10:57:16.600Z,-1.36
2022-12-13T10:59:47.154Z,-1.25
2022-12-13T11:02:36.889Z,-1.28
2022-12-13T11:05:27.413Z,-1.21
2022-12-13T11:08:00.923Z,-1.28
2022-12-13T11:10:30.372Z,-1.33
2022-12-13T11:13:02.622Z,-1.29
2022-12-13T11:15:32.851Z,-1.28
2022-12-13T11:18:05.684Z,-1.15
2022-12-13T11:20:36.761Z,-1.09
2022-12-13T11:23:08.694Z,-0.98
2022-12-13T11:25:41.807Z,-1.27
2022-12-13T11:28:27.822Z,-1.16
2022-12-13T11:31:07.613Z,-1.16
2022-12-13T11:33:48.915Z,-0.97
2022-12-13T11:36:29.432Z,-1.29
2022-12-13T11:39:15.231Z,-1.29
2022-12-13T11:41:50.648Z,-1.03
2022-12-13T11:44:25.414Z,-0.94
2022-12-13T11:46:56.869Z,-0.89
2022-12-13T11:49:38.248Z,-0.98
2022-12-13T11:52:15.371Z,-0.81
2022-12-13T11:54:55.703Z,-0.62
2022-12-13T11:57:44.021Z,-0.65
2022-12-13T12:00:34.269Z,-0.77
2022-12-13T12:03:18.358Z,-0.71
2022-12-13T12:05:56.192Z,-0.60
2022-12-13T12:08:34.442Z,-0.65
2022-12-13T12:11:09.954Z,-0.71
2022-12-13T12:13:50.908Z,-0.59
2022-12-13T12:16:29.917Z,-0.39
2022-12-13T12:19:01.350Z,-0.56
2022-12-13T12:24:36.279Z,-0.63
2022-12-13T12:27:22.367Z,-0.78
2022-12-13T12:30:11.387Z,-0.55
2022-12-13T12:32:48.693Z,-0.52
2022-12-13T12:35:28.981Z,-0.55
2022-12-13T12:38:13.007Z,-0.56
2022-12-13T12:41:15.544Z,-0.53
2022-12-13T12:43:43.476Z,-0.43
2022-12-13T12:46:52.267Z,-0.40
2022-12-13T12:50:02.870Z,-0.32
2022-12-13T12:52:45.255Z,-0.56
2022-12-13T12:55:20.635Z,-0.51
2022-12-13T12:58:01.396Z,-0.42
2022-12-13T13:00:36.862Z,-0.32
2022-12-13T13:03:26.738Z,-0.19
2022-12-13T13:06:02.381Z,-0.28
2022-12-13T13:08:38.781Z,-0.26
2022-12-13T13:11:25.065Z,-0.41
2022-12-13T13:14:06.508Z,-0.06
2022-12-13T13:16:39.114Z,0.15
2022-12-13T13:19:27.387Z,0.41
2022-12-13T13:22:02.092Z,0.24
2022-12-13T13:24:31.966Z,0.11
2022-12-13T13:27:21.023Z,0.08
2022-12-13T13:29:48.954Z,0.52
2022-12-13T13:32:30.083Z,0.55
2022-12-13T13:35:31.520Z,0.46
2022-12-13T13:38:06.081Z,0.51
2022-12-13T13:40:35.770Z,0.26
2022-12-13T13:43:10.819Z,0.38
2022-12-13T13:45:57.230Z,0.33
2022-12-13T13:48:40.434Z,0.31
2022-12-13T13:52:16.768Z,0.25
2022-12-13T13:55:03.945Z,0.20
2022-12-13T13:58:09.804Z,0.07
2022-12-13T14:01:02.496Z,0.30
2022-12-13T14:04:10.267Z,0.09
2022-12-13T14:07:10.382Z,-0.03
2022-12-13T14:09:54.606Z,0.15
2022-12-13T14:13:04.164Z,0.16
2022-12-13T14:16:23.662Z,-0.02
2022-12-13T14:19:29.572Z,-0.04
2022-12-13T14:22:39.506Z,-0.33
2022-12-13T14:25:46.442Z,-0.35
2022-12-13T14:28:28.897Z,-0.32
2022-12-13T14:30:57.932Z,-0.31
2022-12-13T14:33:28.345Z,-0.36
2022-12-13T14:36:00.890Z,-0.22
2022-12-13T14:38:30.537Z,-0.39
2022-12-13T14:41:02.225Z,-0.41
2022-12-13T14:43:37.482Z,-0.46
2022-12-13T14:46:07.960Z,-0.57
2022-12-13T14:48:38.464Z,-0.71
2022-12-13T14:51:06.594Z,-0.81
2022-12-13T14:53:41.190Z,-0.92
2022-12-13T14:56:27.660Z,-0.69
2022-12-13T14:58:58.696Z,-0.89
2022-12-13T15:01:30.387Z,-1.07
2022-12-13T15:04:20.506Z,-1.16
2022-12-13T15:06:55.515Z,-1.22
2022-12-13T15:09:29.017Z,-1.46
2022-12-13T15:12:14.806Z,-1.19
2022-12-13T15:14:51.615Z,-1.21
2022-12-13T15:17:28.029Z,-1.31
2022-12-13T15:19:58.626Z,-1.41
2022-12-13T15:22:29.466Z,-1.50
2022-12-13T15:24:58.644Z,-1.35
2022-12-13T15:27:28.312Z,-1.28
2022-12-13T15:29:56.657Z,-1.30
2022-12-13T15:32:24.526Z,-1.25
2022-12-13T15:34:52.855Z,-1.29
2022-12-13T15:37:28.038Z,-1.22
2022-12-13T15:40:01.231Z,-1.29
2022-12-13T15:42:34.873Z,-1.34
2022-12-13T15:45:07.038Z,-1.13
2022-12-13T15:47:35.259Z,-1.21
2022-12-13T15:50:06.826Z,-1.30
2022-12-13T15:52:37.790Z,-1.35
2022-12-13T15:55:33.798Z,-1.33
2022-12-13T15:58:04.018Z,-1.16
2022-12-13T16:00:34.423Z,-1.24
2022-12-13T16:03:09.747Z,-1.29
2022-12-13T16:05:42.361Z,-1.33
2022-12-13T16:08:25.628Z,-1.33
2022-12-13T16:10:54.613Z,-1.35
2022-12-13T16:13:27.747Z,-1.34
2022-12-13T16:16:26.459Z,-1.42
2022-12-13T16:18:57.591Z,-1.44
2022-12-13T16:21:26.325Z,-1.47
2022-12-13T16:23:54.755Z,-1.50
2022-12-13T16:26:25.679Z,-1.44
2022-12-13T16:28:56.855Z,-1.35
2022-12-13T16:31:27.784Z,-1.42
2022-12-13T16:34:19.571Z,-1.42
2022-12-13T16:36:54.303Z,-1.45
2022-12-13T16:39:22.129Z,-1.51
2022-12-13T16:41:50.015Z,-1.54
2022-12-13T16:44:27.936Z,-1.78
2022-12-13T16:47:12.090Z,-1.61
2022-12-13T16:49:44.145Z,-1.87
2022-12-13T16:52:12.161Z,-1.80
2022-12-13T16:54:40.109Z,-1.63
2022-12-13T16:57:08.019Z,-1.60
2022-12-13T16:59:37.438Z,-1.65
2022-12-13T17:02:06.277Z,-1.72
2022-12-13T17:04:34.269Z,-1.78
2022-12-13T17:07:02.182Z,-1.78
2022-12-13T17:09:30.094Z,-1.96
2022-12-13T17:11:58.189Z,-1.94
2022-12-13T17:14:26.230Z,-2.09
2022-12-13T17:16:55.636Z,-2.21
2022-12-13T17:19:24.015Z,-2.30
2022-12-13T17:21:52.574Z,-2.26
2022-12-13T17:24:20.401Z,-2.16
2022-12-13T17:26:54.785Z,-2.40
2022-12-13T17:29:24.347Z,-2.23
2022-12-13T17:31:52.498Z,-2.39
2022-12-13T17:34:21.787Z,-2.20
2022-12-13T17:36:49.838Z,-2.21
2022-12-13T17:39:17.718Z,-2.09
2022-12-13T17:41:55.390Z,-2.16
2022-12-13T17:44:25.310Z,-1.92
2022-12-13T17:46:54.949Z,-1.84
2022-12-13T17:49:25.285Z,-2.01
2022-12-13T17:51:54.088Z,-1.85
2022-12-13T17:54:23.586Z,-1.80
2022-12-13T17:56:51.406Z,-1.79
2022-12-13T17:59:19.355Z,-1.82
2022-12-13T18:01:47.977Z,-1.75
2022-12-13T18:04:16.179Z,-1.76
2022-12-13T18:06:45.876Z,-1.71
2022-12-13T18:09:14.438Z,-1.70
2022-12-13T18:11:42.293Z,-1.74
2022-12-13T18:14:10.434Z,-1.80
2022-12-13T18:16:39.355Z,-2.04
2022-12-13T18:19:09.405Z,-1.98
2022-12-13T18:21:39.903Z,-1.93
2022-12-13T18:24:10.502Z,-1.93
2022-12-13T18:26:38.476Z,-1.93
2022-12-13T18:29:07.109Z,-1.99
2022-12-13T18:31:35.348Z,-1.92
2022-12-13T18:34:03.275Z,-1.96
2022-12-13T18:36:31.314Z,-2.04
2022-12-13T18:38:59.355Z,-1.94
2022-12-13T18:41:30.697Z,-2.06
2022-12-13T18:44:00.222Z,-1.98
2022-12-13T18:46:29.285Z,-2.00
2022-12-13T18:48:57.844Z,-2.10
2022-12-13T18:51:26.062Z,-2.13
2022-12-13T18:53:54.536Z,-2.14
2022-12-13T18:56:22.691Z,-2.13
2022-12-13T18:58:53.299Z,-2.22
2022-12-13T19:01:25.596Z,-2.18
2022-12-13T19:03:53.757Z,-2.04
2022-12-13T19:06:23.819Z,-1.98
2022-12-13T19:09:17.818Z,-1.90
2022-12-13T19:11:45.780Z,-1.83
2022-12-13T19:14:15.002Z,-1.97
2022-12-13T19:16:43.058Z,-1.81
2022-12-13T19:19:10.945Z,-1.84
2022-12-13T19:21:38.795Z,-1.84
2022-12-13T19:24:10.889Z,-2.13
2022-12-13T19:26:39.055Z,-1.92
2022-12-13T19:29:07.370Z,-1.89
2022-12-13T19:31:36.727Z,-1.93
2022-12-13T19:34:04.880Z,-1.98
2022-12-13T19:36:33.874Z,-2.01
2022-12-13T19:39:02.084Z,-2.02
2022-12-13T19:41:32.178Z,-2.11
2022-12-13T19:44:03.577Z,-2.07
2022-12-13T19:46:31.693Z,-2.06
2022-12-13T19:49:01.054Z,-1.88
2022-12-13T19:51:29.809Z,-1.90
2022-12-13T19:54:00.376Z,-2.01
2022-12-13T19:56:28.245Z,-2.18
2022-12-13T19:58:56.180Z,-2.04
2022-12-13T20:01:24.273Z,-1.93
2022-12-13T20:03:52.140Z,-1.96
2022-12-13T20:06:24.043Z,-1.99
2022-12-13T20:08:52.223Z,-1.98
2022-12-13T20:11:21.902Z,-1.97
2022-12-13T20:13:51.273Z,-2.02
2022-12-13T20:16:21.786Z,-1.90
2022-12-13T20:18:55.537Z,-1.99
2022-12-13T20:21:25.291Z,-2.02
2022-12-13T20:23:53.387Z,-2.05
2022-12-13T20:26:23.565Z,-2.03
2022-12-13T20:28:52.179Z,-2.02
2022-12-13T20:31:21.981Z,-2.17
2022-12-13T20:33:50.007Z,-2.23
2022-12-13T20:36:24.736Z,-2.19
2022-12-13T20:38:56.186Z,-2.19
2022-12-13T20:41:25.986Z,-2.18
2022-12-13T20:43:54.538Z,-2.18
2022-12-13T20:46:23.363Z,-2.15
2022-12-13T20:48:52.936Z,-2.20
2022-12-13T20:51:22.467Z,-2.18
2022-12-13T20:53:51.680Z,-2.10
2022-12-13T20:56:22.748Z,-2.19
2022-12-13T20:58:51.996Z,-2.20
2022-12-13T21:01:22.255Z,-2.16
2022-12-13T21:03:51.330Z,-2.15
2022-12-13T21:06:19.180Z,-2.14
2022-12-13T21:08:53.051Z,-2.11
2022-12-13T21:11:29.184Z,-2.11
2022-12-13T21:14:05.421Z,-2.01
2022-12-13T21:16:39.208Z,-2.10
2022-12-13T21:19:08.530Z,-2.11
2022-12-13T21:21:36.778Z,-2.06
2022-12-13T21:24:04.890Z,-1.94
2022-12-13T21:26:36.123Z,-1.73
2022-12-13T21:29:07.280Z,-1.84
2022-12-13T21:31:36.443Z,-1.99
2022-12-13T21:34:06.528Z,-1.98
2022-12-13T21:36:36.142Z,-2.00
2022-12-13T21:39:07.037Z,-2.05
2022-12-13T21:41:36.419Z,-2.09
2022-12-13T21:44:04.217Z,-2.07
2022-12-13T21:47:11.276Z,-2.02
2022-12-13T21:49:20.645Z,-1.83
2022-12-13T21:51:48.777Z,-1.83
2022-12-13T21:54:17.843Z,-1.83
2022-12-13T21:57:04.496Z,-1.68
2022-12-13T21:59:32.690Z,-1.86
2022-12-13T22:02:19.032Z,-1.88
2022-12-13T22:04:49.115Z,-1.99
2022-12-13T22:07:19.092Z,-2.03
2022-12-13T22:09:47.812Z,-2.04
2022-12-13T22:12:22.688Z,-2.08
2022-12-13T22:14:50.936Z,-2.16
2022-12-13T22:17:19.804Z,-2.09
2022-12-13T22:19:48.747Z,-2.15
2022-12-13T22:22:17.808Z,-1.94
2022-12-13T22:24:52.695Z,-1.93
2022-12-13T22:27:23.919Z,-1.91
2022-12-13T22:29:52.500Z,-1.82
2022-12-13T22:32:21.095Z,-1.72
2022-12-13T22:34:49.020Z,-1.82
2022-12-13T22:37:16.992Z,-1.82
2022-12-13T22:39:44.882Z,-1.85
2022-12-13T22:42:12.654Z,-1.81
2022-12-13T22:44:45.736Z,-1.85
2022-12-13T22:47:13.561Z,-1.81
2022-12-13T22:49:41.966Z,-1.79
2022-12-13T22:52:09.974Z,-1.73
2022-12-13T22:54:38.085Z,-1.77
2022-12-13T22:57:05.943Z,-1.78
2022-12-13T22:59:34.010Z,-1.82
2022-12-13T23:02:04.029Z,-1.72
2022-12-13T23:04:32.765Z,-1.55
2022-12-13T23:07:00.852Z,-1.56
2022-12-13T23:09:28.802Z,-1.51
2022-12-13T23:12:14.518Z,-1.52
2022-12-13T23:14:42.645Z,-1.56
2022-12-13T23:17:11.913Z,-1.49
2022-12-13T23:19:50.127Z,-1.54
2022-12-13T23:22:21.513Z,-1.68
2022-12-13T23:24:49.988Z,-1.56
2022-12-13T23:27:18.355Z,-1.56
2022-12-13T23:29:46.305Z,-1.58
2022-12-13T23:32:15.965Z,-1.52
2022-12-13T23:34:43.758Z,-1.49
2022-12-13T23:37:11.670Z,-1.47
2022-12-13T23:39:41.018Z,-1.49
2022-12-13T23:42:08.866Z,-1.46
2022-12-13T23:44:37.549Z,-1.43
2022-12-13T23:47:05.524Z,-1.45
2022-12-13T23:49:34.996Z,-1.46
2022-12-13T23:52:03.000Z,-1.43
2022-12-13T23:54:30.864Z,-1.44
2022-12-13T23:56:58.778Z,-1.40
2022-12-13T23:59:28.263Z,-1.49
